Pagina principală
METAR-TAF:

METAR-TAF

Aeroporturi :

Bocas Town, Panama

Latitudine: 09-21N, longitudine: 082-15W, elevație: 3 m

Observații meteo curente

Raportul a fost făcut în urmă cu 9 ore și 24 de minute, la 19:00 UTC
Vânt 10 kt de la Vest
Temperatură 28°C
Umiditate 89%
Presiune 1014 hPa
Vizibilitate de 10 km sau mai mult
Nori împrăștiați la o înălțime de 2000 picior
Nori împrăștiați la o înălțime de 8000 picior

METAR: MPBO 131900Z 27010KT 9999 SCT020 SCT080 28/26 Q1014

Ora: 23:24 (04:24 UTC)


TAF: lipsă

Observații și prognoze meteo pentru peste 4.000 de aeroporturi (rapoarte METAR și TAF).

Stațiile disponibile sunt reprezentate pe hartă prin puncte galbene și roșii.

Țineți indicatorul mouse-ului pe punctul dorit pentru a vedea denumirea stației.

Apoi, faceți clic pentru a vedea observațiile și prognozele meteorologice.

Pentru a schimba harta: Pentru mărire, faceți clic pe butoanele verzi cu cruce neagră; pentru micșorare, pe butonul verde cu o liniuță; pentru hărți învecinate, pe săgețile verzi.


METAR-TAF: